Latest Weather Observations for Kadina

IDS60801

Issued at 6:31 am CDT Sunday 11 December 2016 (issued every 30 minutes, with the page automatically refreshed every 10 minutes)

About weather observations | Map of weather stations | Latest weather observations for SA | Other Formats
Station Details ID: 022050 Name: KADINA AWS Lat: -33.97 Lon: 137.66 Height: 41.14 m
Data from the previous 72 hours. | See also: Recent months at Kadina
Date/Time
CDT
Temp
°C
App
Temp
°C
Dew
Point
°C
Rel
Hum
%
Delta-T
°C
Wind Press
QNH
hPa
Press
MSL
hPa
Rain since
9am
mm
Dir  Spd
km/h
Gust
km/h
Spd
kts
Gust
kts
11/06:30am 11.0 6.8 8.4 84 1.3 ESE 20 24 11 13 1021.0 1020.9 0.0
11/06:00am 11.0 7.2 8.9 87 1.0 ESE 19 22 10 12 1020.9 1020.8 0.0
11/05:30am 11.5 8.2 9.6 88 1.0 ESE 17 19 9 10 1020.8 1020.7 0.0
11/05:00am 11.9 8.7 10.1 89 0.9 E 17 20 9 11 1020.6 1020.5 0.0
11/04:30am 12.2 8.9 10.8 91 0.7 E 19 20 10 11 1020.4 1020.3 0.0
11/04:00am 12.7 9.3 11.4 92 0.7 ESE 20 24 11 13 1020.2 1020.1 0.0
11/03:30am 13.0 9.7 11.6 91 0.7 ESE 20 24 11 13 1020.3 1020.2 0.0
11/03:00am 13.3 9.9 11.4 88 1.0 ESE 20 24 11 13 1020.4 1020.3 0.0
11/02:30am 13.8 10.2 11.8 88 1.1 SE 22 28 12 15 1020.5 1020.4 0.0
11/02:00am 14.0 10.4 11.7 86 1.2 ESE 22 30 12 16 1020.6 1020.5 0.0
11/01:30am 14.2 10.6 11.7 85 1.3 SE 22 30 12 16 1020.9 1020.8 0.0
11/01:00am 14.3 10.6 11.5 83 1.5 ESE 22 28 12 15 1021.0 1020.9 0.0
11/12:30am 14.4 10.6 11.2 81 1.7 SE 22 26 12 14 1021.1 1021.0 0.0
11/12:00am 14.5 10.7 11.3 81 1.7 SE 22 30 12 16 1021.2 1021.1 0.0
 
Date/Time
CDT
Temp
°C
App
Temp
°C
Dew
Point
°C
Rel
Hum
%
Delta-T
°C
Wind Press
QNH
hPa
Press
MSL
hPa
Rain since
9am
mm
Dir  Spd
km/h
Gust
km/h
Spd
kts
Gust
kts
10/11:30pm 14.3 11.2 11.5 83 1.5 ESE 19 20 10 11 1021.4 1021.3 0.0
10/11:00pm 15.0 11.8 12.0 82 1.6 SE 20 24 11 13 1021.5 1021.4 0.0
10/10:30pm 15.4 12.1 11.6 78 2.0 SE 20 26 11 14 1021.5 1021.4 0.0
10/10:00pm 15.9 12.6 11.5 75 2.4 SE 20 24 11 13 1021.3 1021.2 0.0
10/09:30pm 16.2 12.8 10.5 69 3.0 SE 19 24 10 13 1021.2 1021.1 0.0
10/09:00pm 17.1 12.0 7.5 53 4.8 SE 24 30 13 16 1021.0 1020.9 0.0
10/08:30pm 18.5 13.7 5.7 43 6.3 SE 20 28 11 15 1020.8 1020.7 0.0
10/08:00pm 20.5 14.5 5.3 37 7.5 SE 26 32 14 17 1020.6 1020.5 0.0
10/07:30pm 22.6 17.0 5.5 33 8.6 SE 24 30 13 16 1020.3 1020.2 0.0
10/07:00pm 24.2 19.5 7.8 35 8.7 S 22 30 12 16 1020.1 1020.0 0.0
10/06:30pm 24.2 19.5 7.8 35 8.6 SSW 22 30 12 16 1019.9 1019.8 0.0
10/06:00pm 25.0 20.1 6.7 31 9.5 SW 22 32 12 17 1019.8 1019.7 0.0
10/05:30pm 25.0 19.3 6.7 31 9.5 SW 26 35 14 19 1020.0 1019.9 0.0
10/05:00pm 24.9 19.6 6.6 31 9.5 WSW 24 32 13 17 1020.2 1020.1 0.0
10/04:30pm 25.0 20.1 5.2 28 10.0 WSW 20 28 11 15 1020.6 1020.5 0.0
10/04:00pm 25.1 20.2 5.3 28 10.1 SW 20 28 11 15 1020.8 1020.7 0.0
10/03:30pm 25.0 21.1 7.2 32 9.3 WSW 17 24 9 13 1021.1 1021.0 0.0
10/03:00pm 24.4 19.8 8.0 35 8.7 WSW 22 30 12 16 1021.3 1021.2 0.0
10/02:30pm 24.8 20.6 8.3 35 8.8 WSW 20 30 11 16 1021.5 1021.4 0.0
10/02:00pm 24.9 21.1 7.5 33 9.2 W 17 28 9 15 1021.8 1021.7 0.0
10/01:30pm 24.2 20.3 8.6 37 8.3 W 19 26 10 14 1022.1 1022.0 0.0
10/01:00pm 23.1 19.0 8.0 38 8.0 WNW 19 26 10 14 1022.4 1022.3 0.0
10/12:30pm 23.3 19.6 7.8 37 8.1 WNW 17 24 9 13 1022.4 1022.3 0.0
10/12:00pm 22.6 19.1 7.2 37 7.9 WNW 15 24 8 13 1022.7 1022.6 0.0
10/11:30am 22.6 18.4 7.6 38 7.8 W 19 26 10 14 1022.9 1022.8 0.0
10/11:00am 22.3 19.7 6.1 35 8.2 WNW 9 15 5 8 1022.9 1022.8 0.0
10/10:30am 22.3 20.0 5.7 34 8.3 E 7 11 4 6 1023.0 1022.9 0.0
10/10:00am 20.6 18.4 6.2 39 7.2 E 7 13 4 7 1023.2 1023.1 0.0
10/09:30am 19.7 17.3 6.8 43 6.5 ENE 9 13 5 7 1023.3 1023.2 0.0
10/09:00am 18.3 16.0 7.4 49 5.5 ENE 9 15 5 8 1023.3 1023.2 0.0
10/08:30am 16.8 13.8 7.7 55 4.6 E 13 19 7 10 1023.2 1023.1 0.0
10/08:00am 15.0 11.4 8.3 64 3.4 E 17 20 9 11 1023.1 1023.0 0.0
10/07:30am 12.6 9.1 8.9 78 1.8 ESE 17 20 9 11 1022.9 1022.8 0.0
10/07:00am 10.8 7.1 8.0 83 1.4 E 17 19 9 10 1022.7 1022.6 0.0
10/06:30am 8.6 4.7 7.1 90 0.7 ESE 17 19 9 10 1022.5 1022.4 0.0
10/06:00am 8.1 4.1 6.6 90 0.7 ESE 17 17 9 9 1022.1 1022.0 0.0
10/05:30am 8.1 4.1 6.6 90 0.7 ESE 17 19 9 10 1021.7 1021.6 0.0
10/05:00am 8.8 4.5 6.9 88 0.9 ESE 19 20 10 11 1021.6 1021.5 0.0
10/04:30am 9.1 4.8 7.2 88 0.9 ESE 19 20 10 11 1021.5 1021.4 0.0
10/04:00am 9.3 5.0 6.9 85 1.1 ESE 19 22 10 12 1021.5 1021.4 0.0
10/03:30am 9.4 5.1 6.8 84 1.2 ESE 19 22 10 12 1021.6 1021.5 0.0
10/03:00am 10.4 6.2 7.3 81 1.5 E 19 22 10 12 1021.8 1021.7 0.0
10/02:30am 10.7 6.3 7.4 80 1.6 E 20 24 11 13 1022.0 1021.9 0.0
10/02:00am 10.5 6.3 7.4 81 1.5 E 19 20 10 11 1022.1 1022.0 0.0
10/01:30am 10.2 6.4 7.4 83 1.3 E 17 19 9 10 1022.3 1022.2 0.0
10/01:00am 10.6 7.0 8.2 85 1.2 ESE 17 19 9 10 1022.4 1022.3 0.0
10/12:30am 11.4 7.8 8.4 82 1.5 ESE 17 20 9 11 1022.5 1022.4 0.0
10/12:00am 11.8 8.2 8.5 80 1.6 SE 17 19 9 10 1022.8 1022.7 0.0
 
Date/Time
CDT
Temp
°C
App
Temp
°C
Dew
Point
°C
Rel
Hum
%
Delta-T
°C
Wind Press
QNH
hPa
Press
MSL
hPa
Rain since
9am
mm
Dir  Spd
km/h
Gust
km/h
Spd
kts
Gust
kts
09/11:30pm 11.0 8.0 7.7 80 1.6 SSE 13 15 7 8 1023.0 1022.9 0.0
09/11:00pm 11.0 7.5 7.1 77 1.9 SSE 15 17 8 9 1023.0 1022.9 0.0
09/10:30pm 10.9 8.0 6.5 74 2.1 SSW 11 13 6 7 1023.0 1022.9 0.0
09/10:00pm 12.0 8.8 6.7 70 2.5 S 13 15 7 8 1023.0 1022.9 0.0
09/09:30pm 13.6 10.1 7.2 65 3.1 SSE 15 19 8 10 1022.6 1022.5 0.0
09/09:00pm 14.2 9.7 6.3 59 3.8 SE 19 24 10 13 1022.2 1022.1 0.0
09/08:30pm 15.5 11.8 6.5 55 4.4 SE 15 17 8 9 1022.1 1022.0 0.0
09/08:00pm 17.0 12.4 5.6 47 5.5 SE 19 24 10 13 1021.9 1021.8 0.0
09/07:30pm 18.3 13.6 6.2 45 6.0 SE 20 28 11 15 1021.7 1021.6 0.0
09/07:00pm 19.0 13.5 5.8 42 6.5 SE 24 32 13 17 1021.3 1021.2 0.0
09/06:30pm 19.7 13.8 5.7 40 6.9 SE 26 39 14 21 1021.0 1020.9 0.0
09/06:00pm 20.3 15.1 5.5 38 7.3 SE 22 32 12 17 1020.7 1020.6 0.0
09/05:30pm 21.1 16.6 7.0 40 7.2 S 20 32 11 17 1020.7 1020.6 0.0
09/05:10pm 19.3 12.9 8.6 50 5.6 WSW 32 50 17 27 1020.6 1020.5 0.0
09/05:00pm 19.8 12.6 9.1 50 5.6 SW 37 46 20 25 1020.5 1020.4 0.0
09/04:48pm 19.5 12.1 8.2 48 5.9 SW 37 46 20 25 1020.5 1020.4 0.0
09/04:30pm 21.7 16.5 7.2 39 7.4 S 24 39 13 21 1020.8 1020.7 0.0
09/04:04pm 20.1 13.7 7.1 43 6.6 WSW 30 50 16 27 1020.5 1020.4 0.0
09/04:00pm 19.8 13.0 7.9 46 6.1 WSW 33 44 18 24 1020.9 1020.8 0.0
09/03:30pm 19.9 12.2 7.3 44 6.4 WSW 37 52 20 28 1020.6 1020.5 0.0
09/03:00pm 20.3 13.0 7.3 43 6.6 SW 35 46 19 25 1021.2 1021.1 0.0
09/02:53pm 20.0 12.3 7.1 43 6.6 SW 37 50 20 27 1021.1 1021.0 0.0
09/02:39pm 21.1 14.0 6.6 39 7.4 SW 33 56 18 30 1021.1 1021.0 0.0
09/02:31pm 20.3 12.7 7.7 44 6.5 SW 37 56 20 30 1021.1 1021.0 0.0
09/02:30pm 19.8 12.1 6.9 43 6.5 SW 37 48 20 26 1021.2 1021.1 0.0
09/02:00pm 20.7 13.8 6.6 40 7.1 WSW 32 48 17 26 1021.2 1021.1 0.0
09/01:30pm 19.8 12.9 6.5 42 6.7 WSW 32 43 17 23 1021.9 1021.8 0.0
09/01:25pm 19.3 12.4 6.4 43 6.4 WSW 32 43 17 23 1021.8 1021.7 0.0
09/01:00pm 20.3 15.7 3.9 34 7.9 SSE 17 24 9 13 1022.3 1022.2 0.0
09/12:30pm 19.5 14.5 4.8 38 7.1 SSE 20 30 11 16 1022.4 1022.3 0.0
09/12:00pm 18.9 14.1 5.4 41 6.6 SSE 20 30 11 16 1022.7 1022.6 0.0
09/11:30am 19.1 14.1 4.5 38 7.0 SE 20 32 11 17 1022.6 1022.5 0.0
09/11:00am 18.4 13.6 4.9 41 6.5 S 19 30 10 16 1022.6 1022.5 0.0
09/10:30am 18.4 13.5 4.2 39 6.7 SE 19 28 10 15 1022.8 1022.7 0.0
09/10:00am 16.6 12.4 4.0 43 5.9 S 15 22 8 12 1022.8 1022.7 0.0
09/09:30am 17.3 12.4 5.3 45 5.8 SSE 20 30 11 16 1022.8 1022.7 0.0
09/09:00am 16.3 11.4 5.0 47 5.3 SSW 20 28 11 15 1022.7 1022.6 0.0
09/08:30am 15.4 9.7 4.8 49 5.0 S 24 32 13 17 1022.3 1022.2 0.0
09/08:00am 14.6 10.0 6.4 58 4.0 S 20 30 11 16 1022.0 1021.9 0.0
09/07:30am 12.2 8.1 6.3 67 2.8 S 17 20 9 11 1021.7 1021.6 0.0
09/07:00am 10.1 5.9 5.7 74 2.0 S 17 20 9 11 1021.2 1021.1 0.0
09/06:30am 9.0 4.6 5.0 76 1.8 S 17 19 9 10 1020.8 1020.7 0.0
09/06:00am 9.3 4.5 4.7 73 2.0 S 19 20 10 11 1020.3 1020.2 0.0
09/05:30am 9.5 4.7 4.9 73 2.1 SSE 19 22 10 12 1020.0 1019.9 0.0
09/05:00am 9.5 5.6 5.3 75 1.9 SSE 15 20 8 11 1019.6 1019.5 0.0
09/04:30am 10.1 5.5 6.3 77 1.8 SSE 20 22 11 12 1019.3 1019.2 0.0
09/04:00am 9.9 5.8 6.4 79 1.6 SSE 17 20 9 11 1019.1 1019.0 0.0
09/03:30am 10.3 5.9 7.4 82 1.4 SSE 20 24 11 13 1018.7 1018.6 0.0
09/03:00am 10.1 5.9 7.5 84 1.2 SSE 19 24 10 13 1018.6 1018.5 0.0
09/02:30am 10.0 6.6 7.6 85 1.1 S 15 17 8 9 1018.6 1018.5 0.0
09/02:00am 10.2 6.4 7.6 84 1.2 SSE 17 19 9 10 1018.5 1018.4 0.0
09/01:30am 10.5 6.8 7.9 84 1.3 SSE 17 20 9 11 1018.5 1018.4 0.0
09/01:00am 10.5 6.8 7.9 84 1.3 S 17 20 9 11 1018.4 1018.3 0.0
09/12:30am 10.7 7.0 7.8 82 1.4 S 17 19 9 10 1018.4 1018.3 0.0
09/12:00am 10.8 7.4 7.7 81 1.5 S 15 17 8 9 1018.4 1018.3 0.0
 
Date/Time
CDT
Temp
°C
App
Temp
°C
Dew
Point
°C
Rel
Hum
%
Delta-T
°C
Wind Press
QNH
hPa
Press
MSL
hPa
Rain since
9am
mm
Dir  Spd
km/h
Gust
km/h
Spd
kts
Gust
kts
08/11:30pm 12.4 9.2 8.3 76 2.0 SSW 15 19 8 10 1018.3 1018.2 0.0
08/11:00pm 13.5 9.6 8.8 73 2.4 S 19 22 10 12 1018.1 1018.0 0.0
08/10:30pm 14.5 9.2 8.5 67 3.0 SSW 26 35 14 19 1017.8 1017.7 0.0
08/10:00pm 15.2 10.3 8.4 64 3.4 SSW 24 33 13 18 1017.5 1017.4 0.0
08/09:30pm 15.2 10.4 8.9 66 3.2 SSW 24 32 13 17 1017.2 1017.1 0.0
08/09:00pm 14.6 8.8 7.9 64 3.3 SW 28 35 15 19 1016.8 1016.7 0.0
08/08:30pm 15.1 9.0 8.3 64 3.4 SW 30 37 16 20 1016.4 1016.3 0.0
08/08:00pm 15.7 9.0 8.2 61 3.8 SSW 33 44 18 24 1016.0 1015.9 0.0
08/07:30pm 16.4 8.4 7.6 56 4.4 SSW 39 50 21 27 1015.4 1015.3 0.0
08/07:00pm 17.0 8.5 8.4 57 4.4 SW 43 54 23 29 1014.9 1014.8 0.0
08/06:30pm 18.0 9.1 7.7 51 5.2 SW 44 59 24 32 1014.5 1014.4 0.0
08/06:00pm 18.2 9.0 8.2 52 5.1 SW 46 57 25 31 1013.7 1013.6 0.0
08/05:30pm 18.5 9.6 7.6 49 5.5 SW 44 59 24 32 1013.2 1013.1 0.0
08/05:00pm 19.7 10.0 7.4 45 6.3 SW 48 61 26 33 1012.8 1012.7 0.0
08/04:30pm 19.1 9.9 8.1 49 5.7 SW 46 61 25 33 1012.6 1012.4 0.0
08/04:15pm 18.7 10.0 7.8 49 5.6 SW 43 63 23 34 1012.6 1012.4 0.0
08/04:00pm 18.7 10.3 8.9 53 5.1 SW 43 59 23 32 1012.7 1012.6 0.0
08/03:44pm 19.3 10.6 8.6 50 5.6 SW 44 65 24 35 1012.3 1012.1 0.0
08/03:30pm 18.8 10.3 8.5 51 5.3 SW 43 59 23 32 1012.3 1012.1 0.0
08/03:00pm 19.5 9.8 7.6 46 6.1 SW 48 61 26 33 1012.1 1011.9 0.0
08/02:31pm 19.6 9.9 7.7 46 6.1 SW 48 67 26 36 1012.0 1011.8 0.0
08/02:30pm 20.0 10.8 8.0 46 6.2 SW 46 63 25 34 1012.1 1011.9 0.0
08/02:04pm 19.8 10.6 10.8 56 4.9 SW 50 69 27 37 1011.9 1011.7 0.0
08/02:00pm 19.0 9.0 7.8 48 5.7 SW 50 63 27 34 1012.1 1011.9 0.0
08/01:30pm 20.2 11.2 8.8 48 6.0 SW 46 61 25 33 1012.0 1011.8 0.0
08/01:00pm 20.2 11.2 8.8 48 6.0 SW 46 63 25 34 1012.1 1011.9 0.0
08/12:46pm 19.8 11.2 10.2 54 5.2 SW 46 65 25 35 1012.1 1011.9 0.0
08/12:30pm 19.1 9.4 9.0 52 5.3 SW 50 65 27 35 1012.0 1011.8 0.0
08/12:04pm 18.7 10.1 8.1 50 5.5 WSW 43 65 23 35 1011.4 1011.2 0.0
08/12:00pm 19.2 11.8 9.7 54 5.1 WSW 39 56 21 30 1011.5 1011.3 0.0
08/11:30am 18.1 10.1 8.9 55 4.8 WSW 41 54 22 29 1011.2 1011.0 0.0
08/11:00am 18.9 10.4 8.6 51 5.4 WSW 43 56 23 30 1010.9 1010.7 0.0
08/10:30am 18.5 10.2 7.9 50 5.4 WSW 41 59 22 32 1010.8 1010.6 0.0
08/10:15am 18.2 9.9 9.3 56 4.7 SW 43 61 23 33 1010.7 1010.5 0.0
08/10:00am 17.7 9.0 8.6 55 4.7 WSW 44 59 24 32 1010.4 1010.2 0.0
08/09:30am 18.0 9.4 8.3 53 5.0 SW 43 56 23 30 1009.9 1009.7 0.0
08/09:00am 16.9 8.6 9.3 61 4.0 WSW 43 57 23 31 1009.7 1009.5 3.8
08/08:51am 16.7 9.1 9.1 61 3.9 WSW 39 57 21 31 1009.7 1009.5 3.8
08/08:30am 16.8 9.2 9.2 61 4.0 WSW 39 50 21 27 1009.3 1009.1 3.8
08/08:00am 16.5 10.0 9.0 61 3.9 WSW 33 48 18 26 1009.1 1008.9 3.8
08/07:30am 15.8 8.0 8.1 60 3.9 SW 39 46 21 25 1008.8 1008.6 3.8
08/07:00am 15.6 7.6 7.6 59 4.0 WSW 39 54 21 29 1008.1 1007.9 3.8

Other Formats:

Comma delimited format used in spreadsheet applications
http://www.bom.gov.au/fwo/IDS60801/IDS60801.94685.axf

JavaScript Object Notation format (JSON) in row-major order
http://www.bom.gov.au/fwo/IDS60801/IDS60801.94685.json